Time;durP1;ratioP1;P1;durP2;ratioP2;P2;SDS_P1;SDS_P2;PMS_P1;PMS_P2;Temp;Humidity;BMP_temperature;BMP_pressure;BME280_temperature;BME280_humidity;BME280_pressure;Samples;Min_cycle;Max_cycle;Signal;HPM_P1;HPM_P2
2023/06/25 00:00:44;;;;;;;11.95;10.20;;;;;;;18.53;76.16;101844.44;5006564;28;20022;-78
2023/06/25 00:03:10;;;;;;;11.13;9.93;;;;;;;18.51;75.88;101845.72;5005189;28;20026;-80
2023/06/25 00:05:36;;;;;;;11.93;10.20;;;;;;;18.49;76.19;101843.22;5003819;28;20064;-79
2023/06/25 00:08:01;;;;;;;14.05;11.43;;;;;;;18.47;76.34;101848.06;5011487;28;20026;-79
2023/06/25 00:10:27;;;;;;;12.30;10.55;;;;;;;18.44;76.05;101843.88;5007367;28;20098;-79
2023/06/25 00:12:52;;;;;;;11.98;10.77;;;;;;;18.40;75.64;101837.22;5004782;28;20030;-79
2023/06/25 00:15:18;;;;;;;13.43;11.77;;;;;;;18.43;76.07;101841.38;5006751;28;20478;-79
2023/06/25 00:17:47;;;;;;;14.15;12.68;;;;;;;18.43;75.79;101841.38;5006403;28;20038;-80
2023/06/25 00:20:13;;;;;;;13.70;11.43;;;;;;;18.47;75.66;101839.88;5007878;28;20026;-80
2023/06/25 00:22:39;;;;;;;16.00;13.77;;;;;;;18.44;75.81;101845.78;5007930;28;20104;-79
2023/06/25 00:25:04;;;;;;;14.45;12.80;;;;;;;18.43;75.92;101846.84;5007223;28;20366;-79
2023/06/25 00:27:30;;;;;;;16.63;12.43;;;;;;;18.41;75.89;101848.94;5005423;28;20062;-79
2023/06/25 00:29:55;;;;;;;13.40;12.00;;;;;;;18.40;75.74;101839.94;5008834;28;20034;-78
2023/06/25 00:32:21;;;;;;;13.48;12.10;;;;;;;18.35;75.93;101847.16;5005603;28;20025;-79
2023/06/25 00:34:46;;;;;;;14.00;12.50;;;;;;;18.30;76.02;101837.75;5005746;28;20034;-79
2023/06/25 00:37:17;;;;;;;13.20;11.43;;;;;;;18.24;76.33;101840.53;5009480;28;20047;-80
2023/06/25 00:39:46;;;;;;;15.55;13.27;;;;;;;18.25;76.52;101831.31;5008675;28;20030;-78
2023/06/25 00:42:12;;;;;;;13.93;12.07;;;;;;;18.18;76.70;101842.25;5017826;28;20048;-78
2023/06/25 00:44:41;;;;;;;12.60;11.18;;;;;;;18.15;76.59;101831.81;5015557;28;20034;-79
2023/06/25 00:47:14;;;;;;;13.10;11.70;;;;;;;18.16;76.71;101822.59;5014868;28;20030;-79
2023/06/25 00:49:40;;;;;;;14.52;13.02;;;;;;;18.09;77.19;101829.97;5006673;28;20026;-79
2023/06/25 00:52:08;;;;;;;12.85;11.38;;;;;;;18.06;77.04;101830.41;5007183;28;20099;-79
2023/06/25 00:54:37;;;;;;;14.05;12.65;;;;;;;18.06;77.11;101830.41;5001922;28;20037;-79
2023/06/25 00:57:04;;;;;;;14.70;13.20;;;;;;;17.98;77.81;101823.34;5009929;28;20120;-79
2023/06/25 00:59:30;;;;;;;13.95;12.55;;;;;;;17.99;77.50;101816.84;5002742;28;20038;-79
2023/06/25 01:01:58;;;;;;;13.10;11.70;;;;;;;18.01;77.01;101821.00;5001633;28;20495;-79
2023/06/25 01:04:25;;;;;;;13.52;12.18;;;;;;;18.01;77.33;101815.56;4986294;28;20042;-79
2023/06/25 01:06:52;;;;;;;14.82;11.93;;;;;;;18.00;77.17;101819.34;5004612;28;20030;-79
2023/06/25 01:09:17;;;;;;;13.27;11.88;;;;;;;17.97;77.11;101813.47;5004682;28;20117;-79
2023/06/25 01:12:02;;;;;;;13.23;11.65;;;;;;;17.92;77.75;101819.59;5000022;28;20063;-78
2023/06/25 01:14:28;;;;;;;13.93;11.20;;;;;;;17.90;77.44;101815.44;5002158;28;20032;-78
2023/06/25 01:16:57;;;;;;;13.60;12.20;;;;;;;17.86;77.63;101812.31;5002797;28;20034;-78
2023/06/25 01:19:29;;;;;;;13.23;11.48;;;;;;;17.83;77.65;101808.16;5003304;28;20031;-79
2023/06/25 01:22:00;;;;;;;15.02;12.23;;;;;;;17.83;77.78;101802.72;5041201;28;20026;-79
2023/06/25 01:24:26;;;;;;;13.88;12.52;;;;;;;17.79;78.00;101800.66;5012312;28;20026;-78
2023/06/25 01:26:56;;;;;;;14.85;12.20;;;;;;;17.75;78.16;101799.44;5010184;28;20099;-78
2023/06/25 01:29:22;;;;;;;13.50;11.63;;;;;;;17.71;78.08;101796.31;5007655;28;20515;-78
2023/06/25 01:31:51;;;;;;;13.98;12.52;;;;;;;17.68;78.97;101785.88;5026587;28;20019;-78
2023/06/25 01:34:20;;;;;;;13.52;11.95;;;;;;;17.63;78.51;101781.09;5018667;28;20099;-79
2023/06/25 01:36:51;;;;;;;13.60;11.98;;;;;;;17.63;78.83;101788.41;5010018;28;20037;-77
2023/06/25 01:39:17;;;;;;;13.80;12.25;;;;;;;17.59;78.78;101782.59;5018505;28;20085;-78
2023/06/25 01:41:43;;;;;;;15.98;13.00;;;;;;;17.52;79.47;101779.06;5017895;28;20050;-79
2023/06/25 01:44:10;;;;;;;14.65;12.02;;;;;;;17.54;79.41;101776.97;5008712;28;20034;-79
2023/06/25 01:46:36;;;;;;;13.02;11.73;;;;;;;17.51;79.35;101772.81;5012919;28;20017;-79
2023/06/25 01:49:01;;;;;;;12.55;11.25;;;;;;;17.45;79.43;101772.84;5037726;28;20047;-79
2023/06/25 01:51:27;;;;;;;13.57;12.18;;;;;;;17.43;79.81;101776.63;5035882;28;20018;-79
2023/06/25 01:53:53;;;;;;;13.52;12.18;;;;;;;17.36;80.16;101770.38;5028089;28;20094;-79
2023/06/25 01:56:18;;;;;;;12.70;11.40;;;;;;;17.35;80.05;101771.44;5004843;28;20022;-78
2023/06/25 01:58:44;;;;;;;13.85;12.45;;;;;;;17.35;80.28;101767.91;5010662;28;20042;-78
2023/06/25 02:01:09;;;;;;;13.57;12.20;;;;;;;17.32;80.08;101765.59;5006074;28;20083;-78
2023/06/25 02:03:34;;;;;;;14.45;12.35;;;;;;;17.26;80.64;101767.31;5020646;28;20063;-79
2023/06/25 02:06:00;;;;;;;14.32;12.63;;;;;;;17.21;80.70;101754.34;5038220;28;20024;-78
2023/06/25 02:08:25;;;;;;;14.60;12.73;;;;;;;17.22;80.78;101755.22;5022697;28;20539;-79
2023/06/25 02:10:50;;;;;;;13.55;12.15;;;;;;;17.19;80.91;101758.34;5007282;28;20018;-78
2023/06/25 02:13:16;;;;;;;13.82;12.43;;;;;;;17.15;81.16;101757.13;5007160;28;20030;-80
2023/06/25 02:15:42;;;;;;;15.75;13.50;;;;;;;17.13;81.23;101750.00;5011767;28;20104;-82
2023/06/25 02:18:08;;;;;;;14.20;11.68;;;;;;;17.07;81.20;101750.06;5008975;28;20034;-80
2023/06/25 02:20:33;;;;;;;14.57;13.02;;;;;;;17.01;81.54;101751.78;5008142;28;20393;-82
2023/06/25 02:22:59;;;;;;;14.30;12.80;;;;;;;17.02;81.58;101741.75;5007181;28;20055;-81
2023/06/25 02:25:24;;;;;;;13.70;12.40;;;;;;;17.03;81.69;101746.13;5002667;28;20393;-81
2023/06/25 02:27:49;;;;;;;14.52;13.02;;;;;;;16.97;81.82;101735.06;5005918;28;20484;-82
2023/06/25 02:30:15;;;;;;;14.55;13.02;;;;;;;17.00;81.69;101739.22;5011183;28;20111;-81
2023/06/25 02:32:41;;;;;;;14.13;12.70;;;;;;;16.92;82.19;101743.00;5008195;28;20038;-82
2023/06/25 02:35:08;;;;;;;15.68;14.05;;;;;;;16.88;82.26;101741.75;5009747;28;20033;-82
2023/06/25 02:37:33;;;;;;;15.30;13.70;;;;;;;16.83;82.79;101731.53;5008381;28;20060;-81
2023/06/25 02:39:59;;;;;;;15.35;13.15;;;;;;;16.79;82.82;101733.03;5007779;28;20026;-82
2023/06/25 02:42:24;;;;;;;16.38;14.57;;;;;;;16.79;83.07;101738.47;5005099;28;20018;-82
2023/06/25 02:44:49;;;;;;;15.80;14.20;;;;;;;16.77;83.18;101735.13;5010857;28;20033;-82
2023/06/25 02:47:15;;;;;;;15.45;13.82;;;;;;;16.71;83.14;101733.28;5033506;28;20024;-82
2023/06/25 02:49:40;;;;;;;14.65;13.15;;;;;;;16.73;83.25;101736.63;5099727;28;20027;-81
2023/06/25 02:52:06;;;;;;;15.27;13.75;;;;;;;16.74;83.37;101732.00;5066960;28;20492;-81
2023/06/25 02:54:31;;;;;;;15.77;14.13;;;;;;;16.77;83.17;101731.56;4999728;28;20030;-81
2023/06/25 02:56:57;;;;;;;15.57;13.93;;;;;;;16.73;83.11;101722.19;5010454;28;20041;-81
2023/06/25 02:59:23;;;;;;;14.98;13.48;;;;;;;16.71;83.22;101719.69;5005709;28;20030;-81
2023/06/25 03:01:48;;;;;;;14.95;13.30;;;;;;;16.66;83.27;101720.34;5003523;28;20652;-81
2023/06/25 03:04:14;;;;;;;15.50;13.90;;;;;;;16.61;83.37;101725.59;5025879;28;20479;-81
2023/06/25 03:06:39;;;;;;;15.32;13.40;;;;;;;16.63;83.18;101717.19;5069853;28;20018;-82
2023/06/25 03:09:05;;;;;;;15.88;14.20;;;;;;;16.61;83.40;101719.31;5011390;28;20077;-82
2023/06/25 03:11:30;;;;;;;14.27;12.88;;;;;;;16.57;83.26;101726.25;5005727;28;20079;-82
2023/06/25 03:13:56;;;;;;;15.82;14.05;;;;;;;16.51;83.68;101715.19;5011296;28;20297;-81
2023/06/25 03:16:21;;;;;;;14.90;13.20;;;;;;;16.50;83.50;101713.50;5010132;28;20029;-82
2023/06/25 03:18:46;;;;;;;14.93;13.32;;;;;;;16.46;83.38;101720.41;5011366;28;20072;-82
2023/06/25 03:21:12;;;;;;;15.95;13.02;;;;;;;16.44;83.53;101716.25;5009614;28;20032;-81
2023/06/25 03:23:39;;;;;;;15.45;13.82;;;;;;;16.45;83.74;101718.75;5008748;28;20022;-80
2023/06/25 03:26:04;;;;;;;16.38;14.20;;;;;;;16.41;83.64;101717.53;5011009;28;20022;-82
2023/06/25 03:28:31;;;;;;;15.13;13.60;;;;;;;16.41;83.86;101708.53;5040512;28;20075;-82
2023/06/25 03:30:56;;;;;;;15.45;13.63;;;;;;;16.39;83.73;101705.19;5055452;28;20041;-81
2023/06/25 03:33:22;;;;;;;14.70;13.20;;;;;;;16.38;83.95;101709.81;5010129;28;20461;-81
2023/06/25 03:35:48;;;;;;;15.60;13.98;;;;;;;16.34;83.87;101701.22;5010918;28;20034;-82
2023/06/25 03:38:13;;;;;;;14.73;13.20;;;;;;;16.37;83.68;101703.50;4992465;28;20035;-82
2023/06/25 03:40:39;;;;;;;16.13;13.50;;;;;;;16.49;83.08;101706.41;5039850;28;20531;-82
2023/06/25 03:43:04;;;;;;;16.20;14.40;;;;;;;16.60;82.46;101701.31;5082893;28;20465;-81
2023/06/25 03:45:29;;;;;;;16.60;14.73;;;;;;;16.60;82.12;101710.31;5019156;28;20031;-81
2023/06/25 03:47:55;;;;;;;15.23;13.40;;;;;;;16.59;82.50;101707.84;5006093;28;20037;-82
2023/06/25 03:50:20;;;;;;;16.08;14.43;;;;;;;16.57;82.57;101708.03;5001154;28;20023;-82
2023/06/25 03:52:46;;;;;;;16.77;13.73;;;;;;;16.57;82.35;101707.22;5008054;28;20037;-81
2023/06/25 03:55:11;;;;;;;15.20;13.68;;;;;;;16.61;82.19;101711.16;5035456;28;20038;-80
2023/06/25 03:57:37;;;;;;;18.13;14.85;;;;;;;16.61;82.08;101705.72;5031024;28;20042;-82
2023/06/25 04:00:02;;;;;;;16.73;15.02;;;;;;;16.64;82.25;101702.56;5025222;28;20029;-80
2023/06/25 04:02:28;;;;;;;15.90;13.75;;;;;;;16.67;82.06;101708.41;5007573;28;20041;-81
2023/06/25 04:04:53;;;;;;;16.92;15.07;;;;;;;16.68;81.98;101703.81;5009121;28;20018;-81
2023/06/25 04:07:18;;;;;;;16.85;15.10;;;;;;;16.72;81.71;101707.75;5010247;28;20427;-82
2023/06/25 04:09:44;;;;;;;16.27;14.68;;;;;;;16.80;81.47;101709.41;5023547;28;20022;-82
2023/06/25 04:12:09;;;;;;;17.00;15.30;;;;;;;16.83;81.23;101712.50;5029736;28;20044;-81
2023/06/25 04:14:35;;;;;;;15.25;13.65;;;;;;;16.89;80.90;101709.97;5013319;28;20033;-83
2023/06/25 04:17:00;;;;;;;17.17;14.35;;;;;;;16.93;80.89;101705.78;5026168;28;20014;-81
2023/06/25 04:19:26;;;;;;;15.23;13.65;;;;;;;16.98;80.48;101708.69;5025980;28;20591;-82
2023/06/25 04:21:51;;;;;;;15.70;14.00;;;;;;;17.05;80.22;101703.19;5012533;28;20022;-82
2023/06/25 04:24:17;;;;;;;14.95;13.35;;;;;;;17.09;79.93;101698.97;5012178;28;20029;-82
2023/06/25 04:26:42;;;;;;;15.82;14.23;;;;;;;17.18;79.63;101702.28;5011931;28;20390;-82
2023/06/25 04:29:08;;;;;;;15.15;13.52;;;;;;;17.24;79.48;101701.41;5013187;28;20017;-81
2023/06/25 04:31:34;;;;;;;15.50;13.70;;;;;;;17.34;79.07;101704.44;5013781;28;20025;-82
2023/06/25 04:33:59;;;;;;;15.75;13.52;;;;;;;17.50;78.43;101705.78;5011432;28;20425;-82
2023/06/25 04:36:24;;;;;;;14.77;13.27;;;;;;;17.88;77.14;101702.09;5013635;28;20022;-81
2023/06/25 04:38:50;;;;;;;13.60;12.20;;;;;;;18.81;74.57;101694.91;5010596;28;20416;-81
2023/06/25 04:41:15;;;;;;;14.98;13.40;;;;;;;19.94;69.04;101699.66;5011879;28;20025;-81
2023/06/25 04:43:41;;;;;;;14.63;12.70;;;;;;;20.97;65.68;101707.22;5012456;28;20022;-83
2023/06/25 04:46:06;;;;;;;14.55;12.85;;;;;;;21.96;61.63;101710.44;5007974;28;20384;-80
2023/06/25 04:48:32;;;;;;;15.00;13.05;;;;;;;22.78;58.61;101707.03;5007131;28;20030;-81
2023/06/25 04:50:57;;;;;;;13.63;12.05;;;;;;;23.37;55.89;101708.16;5035028;28;20018;-79
2023/06/25 04:53:22;;;;;;;13.20;11.82;;;;;;;23.76;55.32;101710.63;5016334;28;20027;-79
2023/06/25 04:55:48;;;;;;;13.32;11.60;;;;;;;24.01;53.58;101709.13;5015315;28;20022;-80
2023/06/25 04:58:13;;;;;;;12.82;10.90;;;;;;;23.98;52.90;101695.94;5005994;28;20389;-81
2023/06/25 05:00:38;;;;;;;12.98;10.95;;;;;;;24.25;52.15;101699.63;5003324;28;20498;-81
2023/06/25 05:03:04;;;;;;;12.85;11.52;;;;;;;24.62;50.91;101699.47;5009471;28;21261;-80
2023/06/25 05:05:29;;;;;;;13.07;11.80;;;;;;;25.02;50.09;101702.59;5012216;28;20042;-80
2023/06/25 05:07:55;;;;;;;12.80;11.35;;;;;;;25.50;49.22;101705.09;5006363;28;20018;-80
2023/06/25 05:10:21;;;;;;;12.27;10.95;;;;;;;25.70;47.91;101717.19;5057839;28;20448;-78
2023/06/25 05:12:47;;;;;;;12.02;10.80;;;;;;;25.85;46.75;101706.13;5074783;28;20028;-77
2023/06/25 05:15:12;;;;;;;13.35;9.90;;;;;;;26.11;46.63;101700.56;5031205;28;20022;-80
2023/06/25 05:17:37;;;;;;;11.15;10.07;;;;;;;26.13;45.84;101714.06;5029585;28;20079;-82
2023/06/25 05:20:04;;;;;;;12.23;10.82;;;;;;;26.18;46.34;101706.59;5021656;28;20469;-82
2023/06/25 05:22:30;;;;;;;11.88;10.65;;;;;;;26.74;44.86;101707.41;5007415;28;20029;-83
2023/06/25 05:24:57;;;;;;;11.45;10.18;;;;;;;27.15;44.00;101705.50;5009807;28;20109;-82
2023/06/25 05:27:22;;;;;;;13.30;10.77;;;;;;;27.07;44.40;101704.97;5009359;28;20505;-81
2023/06/25 05:29:48;;;;;;;12.40;10.15;;;;;;;26.90;44.03;101696.28;5006181;28;20026;-81
2023/06/25 05:32:15;;;;;;;10.82;9.73;;;;;;;27.27;42.89;101707.88;5008687;28;20030;-81
2023/06/25 05:34:40;;;;;;;11.27;10.18;;;;;;;27.20;42.92;101700.72;5034041;28;20040;-82
2023/06/25 05:37:06;;;;;;;11.60;10.40;;;;;;;27.84;42.33;101703.44;5033235;28;20042;-80
2023/06/25 05:39:32;;;;;;;11.15;10.05;;;;;;;27.42;42.59;101698.59;5010353;28;20481;-81
2023/06/25 05:41:58;;;;;;;12.30;10.07;;;;;;;27.60;42.82;101705.38;5009863;28;20546;-82
2023/06/25 05:44:23;;;;;;;11.48;10.27;;;;;;;27.91;41.95;101705.84;5009302;28;20030;-81
2023/06/25 05:46:49;;;;;;;10.07;9.07;;;;;;;28.20;42.11;101705.00;5009353;28;20499;-83
2023/06/25 05:49:14;;;;;;;11.85;10.73;;;;;;;28.12;41.17;101705.66;5009048;28;20029;-82
2023/06/25 05:51:39;;;;;;;12.02;10.40;;;;;;;28.40;41.67;101708.63;5011714;28;20038;-81
2023/06/25 05:54:06;;;;;;;10.32;8.93;;;;;;;29.33;38.53;101707.19;5026811;28;20028;-83
2023/06/25 05:56:32;;;;;;;8.95;8.05;;;;;;;29.60;38.45;101703.69;5016264;28;20065;-82
2023/06/25 05:59:02;;;;;;;11.20;9.57;;;;;;;29.80;37.72;101696.94;5021902;28;20096;-81
2023/06/25 06:01:27;;;;;;;11.23;9.20;;;;;;;29.41;37.40;101689.91;5024395;28;20124;-81
2023/06/25 06:03:53;;;;;;;10.68;9.60;;;;;;;28.92;38.14;101694.03;5034092;28;20034;-83
2023/06/25 06:06:18;;;;;;;10.70;9.65;;;;;;;28.58;39.22;101693.97;5042007;28;20038;-82
2023/06/25 06:08:44;;;;;;;10.50;9.40;;;;;;;29.80;36.73;101696.94;5050541;28;20021;-82
2023/06/25 06:11:10;;;;;;;11.05;9.85;;;;;;;29.33;37.76;101698.88;5063509;28;20020;-81
2023/06/25 06:13:36;;;;;;;9.55;8.60;;;;;;;29.76;37.27;101692.28;5080127;28;20477;-81
2023/06/25 06:16:02;;;;;;;11.27;9.20;;;;;;;29.73;38.08;101693.72;5048068;28;20084;-82
2023/06/25 06:18:29;;;;;;;9.70;8.70;;;;;;;30.54;36.82;101699.81;5043154;28;20034;-80
2023/06/25 06:20:56;;;;;;;10.32;9.25;;;;;;;30.52;37.15;101700.16;5094669;28;20037;-81
2023/06/25 06:23:26;;;;;;;9.95;8.70;;;;;;;30.98;34.89;101712.16;5061836;28;20061;-82
2023/06/25 06:25:52;;;;;;;9.43;8.23;;;;;;;31.26;34.57;101706.47;5029698;28;20121;-82
2023/06/25 06:28:17;;;;;;;7.78;7.07;;;;;;;31.80;33.61;101696.47;5042397;28;20173;-83
2023/06/25 06:30:42;;;;;;;9.80;8.23;;;;;;;33.11;31.67;101696.59;5008642;28;20030;-83
2023/06/25 06:33:08;;;;;;;9.43;8.07;;;;;;;32.21;33.28;101690.50;5077516;28;20031;-83
2023/06/25 06:35:34;;;;;;;9.60;8.63;;;;;;;32.02;33.42;101687.19;5027365;28;20378;-82
2023/06/25 06:37:59;;;;;;;7.55;6.78;;;;;;;32.94;32.03;101688.28;5058479;28;20032;-82
2023/06/25 06:40:25;;;;;;;9.30;8.30;;;;;;;32.08;33.05;101680.31;5057097;28;20079;-83
2023/06/25 06:42:53;;;;;;;8.07;7.28;;;;;;;33.05;31.59;101695.13;5078379;28;20025;-83
2023/06/25 06:45:18;;;;;;;8.02;6.75;;;;;;;33.44;29.84;101688.81;5009114;28;20033;-83
2023/06/25 06:47:44;;;;;;;9.65;7.55;;;;;;;33.20;30.70;101679.84;5046336;28;20020;-83
2023/06/25 06:50:09;;;;;;;8.73;7.28;;;;;;;32.92;30.91;101685.00;5059313;28;20027;-83
2023/06/25 06:52:35;;;;;;;7.90;7.10;;;;;;;33.68;30.38;101689.06;5052486;28;20026;-83
2023/06/25 06:55:03;;;;;;;8.75;6.93;;;;;;;33.40;30.19;101692.28;5035024;28;20428;-83
2023/06/25 06:57:31;;;;;;;8.85;7.95;;;;;;;33.21;31.74;101675.06;5048635;28;20360;-83
2023/06/25 06:59:56;;;;;;;9.45;7.32;;;;;;;34.01;29.81;101679.22;5051289;28;20044;-83
2023/06/25 07:02:22;;;;;;;9.15;7.20;;;;;;;33.86;29.43;101681.41;5009585;28;20018;-83
2023/06/25 07:04:47;;;;;;;6.55;5.90;;;;;;;33.86;30.35;101678.59;5032171;28;20047;-83
2023/06/25 07:07:12;;;;;;;6.82;5.63;;;;;;;34.45;29.61;101676.13;5032718;28;20385;-83
2023/06/25 07:09:38;;;;;;;9.55;7.55;;;;;;;34.19;30.10;101676.28;5050141;28;20031;-83
2023/06/25 07:12:04;;;;;;;7.55;6.35;;;;;;;34.35;29.70;101680.13;5019640;28;20381;-83
2023/06/25 07:14:30;;;;;;;8.10;7.28;;;;;;;34.74;28.86;101680.00;5012264;28;20030;-83
2023/06/25 07:16:55;;;;;;;8.70;7.75;;;;;;;34.30;29.63;101680.34;5041670;28;20028;-82
2023/06/25 07:19:21;;;;;;;8.50;7.60;;;;;;;34.46;29.67;101677.75;5042549;28;20026;-83
2023/06/25 07:21:47;;;;;;;7.70;6.25;;;;;;;35.09;28.90;101673.25;5017882;28;20049;-82
2023/06/25 07:24:13;;;;;;;7.10;6.20;;;;;;;36.07;27.10;101682.94;5037783;28;20453;-82
2023/06/25 07:26:38;;;;;;;7.60;6.90;;;;;;;35.78;26.84;101679.19;5042368;28;20528;-83
2023/06/25 07:29:04;;;;;;;7.28;6.57;;;;;;;36.41;26.65;101673.13;5035418;28;20035;-83
2023/06/25 07:31:29;;;;;;;9.50;8.23;;;;;;;35.31;28.32;101672.84;5059107;28;20038;-83
2023/06/25 07:33:55;;;;;;;8.75;7.70;;;;;;;34.12;29.62;101668.47;5051332;28;20036;-83
2023/06/25 07:36:22;;;;;;;8.70;7.25;;;;;;;34.71;29.32;101661.91;5008761;28;20018;-83
2023/06/25 07:38:47;;;;;;;9.13;7.05;;;;;;;35.59;27.94;101665.78;5086287;28;20494;-83
2023/06/25 07:41:12;;;;;;;8.30;6.72;;;;;;;36.58;26.02;101662.81;5058853;28;20031;-82
2023/06/25 07:43:39;;;;;;;10.95;6.60;;;;;;;37.08;26.04;101665.38;5051343;28;20031;-81
2023/06/25 07:46:05;;;;;;;7.60;6.68;;;;;;;36.47;26.53;101661.69;5009550;28;20030;-83
2023/06/25 07:48:32;;;;;;;8.77;7.20;;;;;;;36.64;26.93;101664.19;5008392;28;20037;-82
2023/06/25 07:50:58;;;;;;;9.23;7.43;;;;;;;36.42;27.34;101655.13;5050529;28;20033;-83
2023/06/25 07:53:23;;;;;;;9.05;7.75;;;;;;;36.09;27.49;101655.38;5008481;28;20029;-83
2023/06/25 07:55:49;;;;;;;9.27;7.65;;;;;;;36.60;26.51;101665.28;5050424;28;20027;-82
2023/06/25 07:58:14;;;;;;;9.02;8.15;;;;;;;36.47;26.94;101658.91;5111406;28;20030;-83
2023/06/25 08:00:40;;;;;;;7.18;6.25;;;;;;;36.58;27.57;101660.00;5031617;28;20219;-81
2023/06/25 08:03:05;;;;;;;8.20;7.28;;;;;;;37.18;26.43;101662.06;5098978;28;20032;-83
2023/06/25 08:05:30;;;;;;;10.35;7.82;;;;;;;37.04;26.06;101662.50;5063105;28;20053;-83
2023/06/25 08:07:56;;;;;;;8.52;7.53;;;;;;;36.23;27.82;101646.56;5056000;28;20024;-83
2023/06/25 08:10:23;;;;;;;7.75;7.03;;;;;;;36.76;26.65;101648.47;5048917;28;20026;-83
2023/06/25 08:12:48;;;;;;;8.35;7.10;;;;;;;37.58;25.59;101649.84;5089456;28;20067;-82
2023/06/25 08:15:14;;;;;;;8.63;7.80;;;;;;;37.66;24.83;101650.84;5065823;28;20026;-82
2023/06/25 08:17:39;;;;;;;7.47;6.28;;;;;;;36.66;27.13;101645.03;5024111;28;20034;-84
2023/06/25 08:20:07;;;;;;;7.65;6.85;;;;;;;37.65;25.73;101651.19;5044955;28;20028;-83
2023/06/25 08:22:33;;;;;;;12.00;8.57;;;;;;;37.36;26.40;101644.84;5071885;28;20028;-83
2023/06/25 08:24:58;;;;;;;9.40;8.32;;;;;;;36.87;26.76;101644.00;5099782;28;20080;-83
2023/06/25 08:27:24;;;;;;;9.23;8.30;;;;;;;36.34;27.61;101633.69;5024289;28;20040;-83
2023/06/25 08:29:49;;;;;;;8.07;7.22;;;;;;;37.00;27.17;101641.94;5074334;28;20086;-85
2023/06/25 08:32:14;;;;;;;9.15;7.80;;;;;;;36.75;26.50;101642.06;5080035;28;20038;-83
2023/06/25 08:34:40;;;;;;;12.13;7.70;;;;;;;35.80;27.72;101644.06;5042387;28;20045;-84
2023/06/25 08:37:05;;;;;;;9.50;7.75;;;;;;;36.25;26.72;101635.81;5040482;28;20052;-83
2023/06/25 08:39:31;;;;;;;8.77;7.43;;;;;;;36.70;26.07;101643.16;5018575;23;20470;-82
2023/06/25 08:41:56;;;;;;;10.20;8.23;;;;;;;36.69;27.12;101641.50;5040349;28;20020;-84
2023/06/25 08:44:22;;;;;;;8.65;7.68;;;;;;;36.82;26.90;101635.81;5050193;28;20039;-82
2023/06/25 08:46:47;;;;;;;8.18;7.15;;;;;;;37.58;25.61;101630.19;5027011;28;20036;-82
2023/06/25 08:49:13;;;;;;;8.00;6.78;;;;;;;38.67;23.90;101632.50;5042998;28;20027;-82
2023/06/25 08:51:38;;;;;;;8.68;6.93;;;;;;;38.39;24.19;101635.59;5063378;28;20027;-82
2023/06/25 08:54:03;;;;;;;8.23;6.65;;;;;;;39.01;23.43;101643.22;5033156;28;20029;-83
2023/06/25 08:56:29;;;;;;;8.13;7.32;;;;;;;38.38;24.21;101629.16;5042163;28;20043;-81
2023/06/25 08:58:54;;;;;;;9.25;7.97;;;;;;;37.22;24.40;101631.25;5041566;28;20448;-81
2023/06/25 09:01:20;;;;;;;10.20;9.00;;;;;;;37.65;25.42;101632.34;5047071;28;20054;-82
2023/06/25 09:03:46;;;;;;;9.77;8.80;;;;;;;38.16;25.12;101628.66;5047578;27;20550;-83
2023/06/25 09:06:13;;;;;;;11.40;9.15;;;;;;;37.96;24.18;101627.00;5084065;28;20044;-82
2023/06/25 09:08:39;;;;;;;8.40;7.07;;;;;;;38.37;24.17;101624.69;5013743;27;20037;-82
2023/06/25 09:11:06;;;;;;;11.73;8.32;;;;;;;38.19;24.35;101621.50;5092562;28;20455;-82
2023/06/25 09:13:32;;;;;;;12.55;8.65;;;;;;;39.03;24.15;101624.75;5034927;28;20032;-81
2023/06/25 09:16:07;;;;;;;9.98;7.68;;;;;;;38.59;23.89;101625.94;5018224;28;20083;-82
2023/06/25 09:18:32;;;;;;;8.48;7.63;;;;;;;39.24;22.39;101623.47;5054895;28;20517;-82
2023/06/25 09:21:14;;;;;;;7.47;6.70;;;;;;;39.33;22.10;101615.63;5012818;28;20028;-81
2023/06/25 09:23:43;;;;;;;10.82;7.70;;;;;;;38.74;23.11;101614.97;5053464;28;20519;-82
2023/06/25 09:26:10;;;;;;;10.30;8.15;;;;;;;37.75;25.12;101611.31;5113061;28;20039;-82
2023/06/25 09:28:47;;;;;;;10.00;8.15;;;;;;;38.71;23.11;101610.09;5085650;27;20045;-83
2023/06/25 09:31:15;;;;;;;8.88;7.57;;;;;;;38.52;23.65;101600.50;5057265;28;20026;-83
2023/06/25 09:33:41;;;;;;;9.90;7.40;;;;;;;39.47;23.03;101608.59;5049899;28;20039;-83
2023/06/25 09:36:06;;;;;;;9.23;7.90;;;;;;;39.39;22.37;101607.66;5034507;28;20028;-83
2023/06/25 09:38:32;;;;;;;8.75;7.10;;;;;;;40.48;20.88;101595.81;5065610;28;20022;-83
2023/06/25 09:40:58;;;;;;;7.45;5.80;;;;;;;39.36;20.61;101599.97;5111356;28;20031;-83
2023/06/25 09:43:25;;;;;;;6.78;6.07;;;;;;;39.66;20.50;101593.56;5064217;28;20026;-83
2023/06/25 09:45:50;;;;;;;7.32;5.88;;;;;;;39.54;21.20;101591.75;5041581;28;20026;-84
2023/06/25 09:48:15;;;;;;;6.70;5.93;;;;;;;39.95;20.79;101597.59;5109837;28;20035;-83
2023/06/25 09:50:42;;;;;;;7.00;6.25;;;;;;;39.74;20.37;101586.88;5062048;28;20066;-84
2023/06/25 09:53:16;;;;;;;6.28;5.68;;;;;;;39.30;20.92;101588.22;5072203;28;20024;-82
2023/06/25 09:55:42;;;;;;;5.72;5.13;;;;;;;39.80;19.86;101587.34;5058832;28;20067;-83
2023/06/25 09:58:07;;;;;;;6.45;5.18;;;;;;;39.78;20.63;101584.91;5084566;28;20032;-82
2023/06/25 10:00:34;;;;;;;6.03;5.43;;;;;;;39.30;21.26;101576.13;5036589;28;20034;-83
2023/06/25 10:02:59;;;;;;;7.20;5.60;;;;;;;39.22;20.14;101586.44;5089177;28;20033;-83
2023/06/25 10:05:25;;;;;;;8.35;5.20;;;;;;;39.12;20.65;101576.63;5035129;28;20379;-83
2023/06/25 10:07:51;;;;;;;5.93;5.32;;;;;;;39.36;20.45;101572.59;5066966;28;20027;-83
2023/06/25 10:10:21;;;;;;;6.32;4.95;;;;;;;39.26;20.77;101570.41;5040996;28;20378;-83
2023/06/25 10:12:47;;;;;;;6.50;5.10;;;;;;;39.90;20.76;101583.03;5049515;28;20057;-83
2023/06/25 10:15:13;;;;;;;6.50;5.70;;;;;;;39.84;20.05;101566.44;5111843;28;20443;-83
2023/06/25 10:17:46;;;;;;;6.00;5.40;;;;;;;40.38;19.04;101568.31;5032782;28;20034;-82
2023/06/25 10:20:11;;;;;;;10.48;5.63;;;;;;;38.96;21.32;101562.69;5070531;28;20030;-83
2023/06/25 10:22:38;;;;;;;6.75;5.30;;;;;;;38.41;22.19;101560.06;5021609;28;20071;-84
2023/06/25 10:25:03;;;;;;;6.40;5.80;;;;;;;38.70;21.79;101555.78;5056686;28;20457;-81
2023/06/25 10:27:29;;;;;;;7.07;5.55;;;;;;;39.60;21.24;101559.25;5056831;28;20040;-82
2023/06/25 10:29:56;;;;;;;7.22;5.50;;;;;;;39.95;20.65;101548.88;5039819;28;20033;-82
2023/06/25 10:32:22;;;;;;;8.13;5.75;;;;;;;39.13;21.24;101558.53;5044246;28;20022;-82
2023/06/25 10:34:53;;;;;;;5.60;5.00;;;;;;;38.78;22.13;101551.09;5011572;28;20538;-82
2023/06/25 10:37:19;;;;;;;7.22;5.57;;;;;;;40.11;20.29;101543.00;5059576;28;20035;-82
2023/06/25 10:39:44;;;;;;;8.23;5.90;;;;;;;40.39;20.20;101544.56;5058954;28;20040;-82
2023/06/25 10:42:12;;;;;;;5.68;5.00;;;;;;;40.21;19.75;101539.53;5008462;28;20030;-85
2023/06/25 10:44:38;;;;;;;7.40;5.35;;;;;;;40.01;20.58;101533.22;5007987;28;20117;-86
2023/06/25 10:47:04;;;;;;;6.22;5.22;;;;;;;39.54;21.22;101541.06;5013942;28;20469;-81
2023/06/25 10:49:30;;;;;;;7.18;4.50;;;;;;;40.49;20.70;101532.56;5011183;28;20490;-83
2023/06/25 10:51:58;;;;;;;5.57;4.97;;;;;;;39.68;20.33;101534.81;5012487;28;20034;-83
2023/06/25 10:54:23;;;;;;;4.40;4.00;;;;;;;39.33;19.86;101533.94;5061920;28;20034;-83
2023/06/25 10:56:49;;;;;;;4.80;4.40;;;;;;;39.82;19.91;101520.13;5011571;28;20094;-83
2023/06/25 10:59:21;;;;;;;5.28;4.50;;;;;;;39.91;20.71;101520.63;5008427;28;20030;-82
2023/06/25 11:01:46;;;;;;;4.63;4.22;;;;;;;39.16;21.12;101520.38;5008871;28;20018;-82
2023/06/25 11:04:15;;;;;;;5.40;4.70;;;;;;;39.57;20.65;101512.94;5022434;28;20931;-82
2023/06/25 11:06:40;;;;;;;5.13;4.22;;;;;;;39.85;20.09;101517.34;5010269;28;20040;-82
2023/06/25 11:09:06;;;;;;;6.40;4.55;;;;;;;39.75;20.25;101517.19;5009444;28;20034;-82
2023/06/25 11:11:31;;;;;;;5.20;4.35;;;;;;;40.68;19.97;101522.28;5005468;28;20026;-83